createdAt,value
2023-05-14T00:01:00.247Z,11.40
2023-05-14T00:03:26.678Z,11.37
2023-05-14T00:05:53.131Z,11.38
2023-05-14T00:08:19.517Z,11.35
2023-05-14T00:10:46.122Z,11.36
2023-05-14T00:13:12.549Z,11.35
2023-05-14T00:15:41.073Z,11.34
2023-05-14T00:18:07.504Z,11.39
2023-05-14T00:20:34.030Z,11.33
2023-05-14T00:23:00.499Z,11.33
2023-05-14T00:25:26.847Z,11.30
2023-05-14T00:27:53.232Z,11.28
2023-05-14T00:30:19.582Z,11.23
2023-05-14T00:32:46.135Z,11.20
2023-05-14T00:35:13.505Z,11.18
2023-05-14T00:37:39.890Z,11.18
2023-05-14T00:40:13.511Z,11.18
2023-05-14T00:42:40.233Z,11.16
2023-05-14T00:45:06.620Z,11.16
2023-05-14T00:47:33.214Z,11.15
2023-05-14T00:49:59.926Z,11.17
2023-05-14T00:52:26.205Z,11.15
2023-05-14T00:54:52.638Z,11.18
2023-05-14T00:57:18.997Z,11.17
2023-05-14T00:59:45.433Z,11.23
2023-05-14T01:02:12.808Z,11.20
2023-05-14T01:04:39.295Z,11.24
2023-05-14T01:07:05.721Z,11.21
2023-05-14T01:09:32.462Z,11.18
2023-05-14T01:11:58.868Z,11.21
2023-05-14T01:14:25.243Z,11.20
2023-05-14T01:16:51.759Z,11.22
2023-05-14T01:19:18.259Z,11.21
2023-05-14T01:21:44.676Z,11.19
2023-05-14T01:24:11.052Z,11.19
2023-05-14T01:26:37.530Z,11.20
2023-05-14T01:29:04.537Z,11.17
2023-05-14T01:31:31.008Z,11.07
2023-05-14T01:33:57.492Z,11.02
2023-05-14T01:36:24.050Z,10.98
2023-05-14T01:38:50.503Z,10.94
2023-05-14T01:41:17.002Z,10.92
2023-05-14T01:43:43.652Z,10.91
2023-05-14T01:46:10.077Z,10.88
2023-05-14T01:48:36.607Z,10.89
2023-05-14T01:51:02.978Z,10.96
2023-05-14T01:53:29.384Z,11.01
2023-05-14T01:55:55.801Z,11.00
2023-05-14T01:58:22.181Z,11.01
2023-05-14T02:00:48.972Z,11.02
2023-05-14T02:03:15.331Z,11.01
2023-05-14T02:05:41.748Z,11.05
2023-05-14T02:08:08.164Z,11.03
2023-05-14T02:10:34.608Z,11.04
2023-05-14T02:13:01.016Z,11.01
2023-05-14T02:15:27.477Z,11.01
2023-05-14T02:17:53.874Z,11.02
2023-05-14T02:20:20.243Z,11.05
2023-05-14T02:22:46.762Z,11.05
2023-05-14T02:25:13.173Z,11.01
2023-05-14T02:27:39.765Z,11.02
2023-05-14T02:30:06.261Z,10.99
2023-05-14T02:35:00.326Z,10.90
2023-05-14T02:37:27.049Z,10.89
2023-05-14T02:39:53.503Z,10.89
2023-05-14T02:42:20.168Z,10.87
2023-05-14T02:44:46.524Z,10.83
2023-05-14T02:47:13.087Z,10.79
2023-05-14T02:49:39.680Z,10.73
2023-05-14T02:52:06.256Z,10.76
2023-05-14T02:54:32.798Z,10.70
2023-05-14T02:56:59.292Z,10.73
2023-05-14T02:59:25.640Z,10.73
2023-05-14T03:01:52.437Z,10.76
2023-05-14T03:04:19.638Z,10.78
2023-05-14T03:06:46.013Z,10.79
2023-05-14T03:09:12.509Z,10.81
2023-05-14T03:11:38.878Z,10.81
2023-05-14T03:14:05.263Z,10.81
2023-05-14T03:16:31.678Z,10.82
2023-05-14T03:18:58.290Z,10.83
2023-05-14T03:21:24.679Z,10.83
2023-05-14T03:23:51.071Z,10.85
2023-05-14T03:26:17.505Z,10.84
2023-05-14T03:28:43.928Z,10.83
2023-05-14T03:31:10.765Z,10.81
2023-05-14T03:33:37.224Z,10.81
2023-05-14T03:36:03.804Z,10.77
2023-05-14T03:38:30.303Z,10.77
2023-05-14T03:40:56.721Z,10.68
2023-05-14T03:43:23.088Z,10.60
2023-05-14T03:45:49.475Z,10.54
2023-05-14T03:48:16.242Z,10.54
2023-05-14T03:50:42.810Z,10.58
2023-05-14T03:53:09.184Z,10.63
2023-05-14T03:55:35.581Z,10.60
2023-05-14T03:58:02.046Z,10.54
2023-05-14T04:00:28.486Z,10.57
2023-05-14T04:02:54.947Z,10.60
2023-05-14T04:05:21.587Z,10.58
2023-05-14T04:07:47.983Z,10.64
2023-05-14T04:10:14.358Z,10.64
2023-05-14T04:12:40.753Z,10.64
2023-05-14T04:15:07.141Z,10.59
2023-05-14T04:17:34.946Z,10.58
2023-05-14T04:20:01.667Z,10.59
2023-05-14T04:22:28.160Z,10.62
2023-05-14T04:24:54.547Z,10.64
2023-05-14T04:27:21.176Z,10.62
2023-05-14T04:29:47.615Z,10.67
2023-05-14T04:32:14.182Z,10.68
2023-05-14T04:34:40.617Z,10.65
2023-05-14T04:37:06.946Z,10.65
2023-05-14T04:39:33.339Z,10.69
2023-05-14T04:41:59.726Z,10.70
2023-05-14T04:44:26.185Z,10.69
2023-05-14T04:46:52.796Z,10.61
2023-05-14T04:49:19.155Z,10.77
2023-05-14T04:51:45.543Z,10.68
2023-05-14T04:54:11.972Z,10.64
2023-05-14T04:56:38.359Z,10.65
2023-05-14T04:59:04.682Z,10.53
2023-05-14T05:01:31.247Z,10.55
2023-05-14T05:03:57.807Z,10.61
2023-05-14T05:06:24.413Z,10.63
2023-05-14T05:08:50.799Z,10.64
2023-05-14T05:11:17.378Z,10.63
2023-05-14T05:13:43.908Z,10.68
2023-05-14T05:16:10.297Z,10.68
2023-05-14T05:18:36.736Z,10.68
2023-05-14T05:21:03.397Z,10.69
2023-05-14T05:23:29.771Z,10.67
2023-05-14T05:25:56.122Z,10.65
2023-05-14T05:28:22.477Z,10.64
2023-05-14T05:30:49.059Z,10.73
2023-05-14T05:33:15.404Z,10.63
2023-05-14T05:35:42.462Z,10.61
2023-05-14T05:38:08.903Z,10.56
2023-05-14T05:40:35.325Z,10.58
2023-05-14T05:43:01.702Z,10.62
2023-05-14T05:45:28.175Z,10.73
2023-05-14T05:47:54.674Z,10.63
2023-05-14T05:50:21.291Z,10.56
2023-05-14T05:52:47.797Z,10.56
2023-05-14T05:55:14.855Z,10.58
2023-05-14T05:57:41.286Z,10.61
2023-05-14T06:00:07.712Z,10.66
2023-05-14T06:02:34.152Z,10.67
2023-05-14T06:05:01.025Z,10.69
2023-05-14T06:07:27.515Z,10.70
2023-05-14T06:09:53.884Z,10.69
2023-05-14T06:12:20.306Z,10.68
2023-05-14T06:14:46.641Z,10.68
2023-05-14T06:17:13.043Z,10.66
2023-05-14T06:19:39.562Z,10.73
2023-05-14T06:22:06.054Z,10.66
2023-05-14T06:24:32.436Z,10.69
2023-05-14T06:26:58.854Z,10.84
2023-05-14T06:29:25.314Z,10.66
2023-05-14T06:31:51.854Z,10.57
2023-05-14T06:34:18.462Z,10.58
2023-05-14T06:36:45.020Z,10.69
2023-05-14T06:39:11.377Z,10.48
2023-05-14T06:41:37.735Z,10.41
2023-05-14T06:44:04.331Z,10.43
2023-05-14T06:46:31.084Z,10.40
2023-05-14T06:48:59.321Z,10.38
2023-05-14T06:51:26.046Z,10.40
2023-05-14T06:53:52.680Z,10.50
2023-05-14T06:56:19.074Z,10.48
2023-05-14T06:58:45.526Z,10.51
2023-05-14T07:01:11.932Z,10.51
2023-05-14T07:03:38.338Z,10.49
2023-05-14T07:06:04.804Z,10.45
2023-05-14T07:08:31.182Z,10.42
2023-05-14T07:10:57.514Z,10.42
2023-05-14T07:13:24.914Z,10.49
2023-05-14T07:15:52.512Z,10.46
2023-05-14T07:18:19.078Z,10.51
2023-05-14T07:20:45.388Z,10.36
2023-05-14T07:23:11.868Z,10.21
2023-05-14T07:25:39.281Z,10.20
2023-05-14T07:28:05.704Z,9.95
2023-05-14T07:30:32.055Z,10.05
2023-05-14T07:32:58.560Z,10.11
2023-05-14T07:35:25.852Z,10.01
2023-05-14T07:37:52.303Z,10.08
2023-05-14T07:40:18.759Z,10.36
2023-05-14T07:42:45.397Z,10.43
2023-05-14T07:45:12.077Z,10.36
2023-05-14T07:47:38.533Z,10.41
2023-05-14T07:50:05.035Z,10.44
2023-05-14T07:52:31.400Z,10.44
2023-05-14T07:54:57.843Z,10.39
2023-05-14T07:57:24.320Z,10.42
2023-05-14T07:59:50.714Z,10.68
2023-05-14T08:02:17.674Z,10.84
2023-05-14T08:04:44.253Z,10.73
2023-05-14T08:07:10.624Z,10.71
2023-05-14T08:09:37.008Z,10.55
2023-05-14T08:12:03.490Z,10.48
2023-05-14T08:14:29.822Z,10.48
2023-05-14T08:16:58.471Z,10.54
2023-05-14T08:19:25.238Z,10.57
2023-05-14T08:21:51.615Z,10.59
2023-05-14T08:24:18.168Z,10.55
2023-05-14T08:26:44.622Z,10.55
2023-05-14T08:29:11.918Z,10.55
2023-05-14T08:31:39.334Z,10.50
2023-05-14T08:34:05.878Z,10.46
2023-05-14T08:36:32.373Z,10.51
2023-05-14T08:38:58.749Z,10.53
2023-05-14T08:41:25.138Z,10.48
2023-05-14T08:43:51.537Z,10.42
2023-05-14T08:46:17.925Z,10.43
2023-05-14T08:48:44.364Z,10.48
2023-05-14T08:51:10.767Z,10.49
2023-05-14T08:53:37.490Z,10.57
2023-05-14T08:56:03.880Z,10.56
2023-05-14T08:58:33.136Z,10.50
2023-05-14T09:01:00.538Z,10.52
2023-05-14T09:03:27.099Z,10.41
2023-05-14T09:05:53.866Z,10.44
2023-05-14T09:08:20.230Z,10.43
2023-05-14T09:10:46.578Z,10.44
2023-05-14T09:13:12.993Z,10.43
2023-05-14T09:15:39.434Z,10.48
2023-05-14T09:18:05.890Z,10.49
2023-05-14T09:20:32.577Z,10.41
2023-05-14T09:22:59.020Z,10.38
2023-05-14T09:25:25.583Z,10.43
2023-05-14T09:27:52.044Z,10.37
2023-05-14T09:30:18.430Z,10.41
2023-05-14T09:32:45.346Z,10.42
2023-05-14T09:35:11.957Z,10.34
2023-05-14T09:37:38.362Z,10.40
2023-05-14T09:40:05.851Z,10.29
2023-05-14T09:42:32.350Z,10.32
2023-05-14T09:44:58.742Z,10.33
2023-05-14T09:47:25.244Z,10.33
2023-05-14T09:49:52.249Z,10.41
2023-05-14T09:52:18.642Z,10.40
2023-05-14T09:54:45.005Z,10.39
2023-05-14T09:57:11.476Z,10.48
2023-05-14T09:59:37.859Z,10.48
2023-05-14T10:02:04.240Z,10.33
2023-05-14T10:04:33.758Z,10.34
2023-05-14T10:07:00.269Z,10.37
2023-05-14T10:09:26.686Z,10.38
2023-05-14T10:11:53.457Z,10.44
2023-05-14T10:14:19.901Z,10.47
2023-05-14T10:16:46.269Z,10.51
2023-05-14T10:19:12.740Z,10.44
2023-05-14T10:21:39.256Z,10.48
2023-05-14T10:24:07.735Z,10.49
2023-05-14T10:26:34.137Z,10.43
2023-05-14T10:29:00.530Z,10.41
2023-05-14T10:31:27.203Z,10.43
2023-05-14T10:33:54.013Z,10.42
2023-05-14T10:36:20.460Z,10.45
2023-05-14T10:38:47.013Z,10.47
2023-05-14T10:41:13.501Z,10.55
2023-05-14T10:43:40.060Z,10.53
2023-05-14T10:46:06.642Z,10.45
2023-05-14T10:48:33.288Z,10.50
2023-05-14T10:50:59.691Z,10.53
2023-05-14T10:53:26.035Z,10.71
2023-05-14T10:55:52.362Z,10.55
2023-05-14T10:58:18.909Z,10.59
2023-05-14T11:00:45.502Z,10.56
2023-05-14T11:03:12.325Z,10.55
2023-05-14T11:05:39.135Z,10.51
2023-05-14T11:08:05.495Z,10.52
2023-05-14T11:10:32.253Z,10.54
2023-05-14T11:12:58.614Z,10.53
2023-05-14T11:15:25.043Z,10.56
2023-05-14T11:17:51.483Z,10.58
2023-05-14T11:20:18.370Z,10.66
2023-05-14T11:22:45.936Z,10.63
2023-05-14T11:25:12.451Z,10.72
2023-05-14T11:27:38.832Z,10.67
2023-05-14T11:30:05.407Z,10.62
2023-05-14T11:32:31.889Z,10.70
2023-05-14T11:35:00.177Z,10.68
2023-05-14T11:37:26.606Z,10.69
2023-05-14T11:39:52.963Z,10.86
2023-05-14T11:42:20.361Z,10.78
2023-05-14T11:44:46.744Z,10.80
2023-05-14T11:47:13.146Z,10.79
2023-05-14T11:49:39.489Z,10.56
2023-05-14T11:52:05.986Z,10.62
2023-05-14T11:54:32.366Z,10.65
2023-05-14T11:56:58.762Z,10.68
2023-05-14T11:59:25.322Z,10.75
2023-05-14T12:01:51.728Z,10.76
2023-05-14T12:04:18.145Z,10.75
2023-05-14T12:06:44.640Z,10.77
2023-05-14T12:09:11.044Z,10.72
2023-05-14T12:11:37.429Z,10.78
2023-05-14T12:14:04.059Z,10.75
2023-05-14T12:16:30.498Z,10.88
2023-05-14T12:18:57.055Z,10.90
2023-05-14T12:21:23.825Z,10.80
2023-05-14T12:23:50.146Z,10.81
2023-05-14T12:26:16.518Z,10.81
2023-05-14T12:28:42.905Z,10.81
2023-05-14T12:31:09.391Z,10.88
2023-05-14T12:33:35.880Z,10.93
2023-05-14T12:36:13.491Z,10.89
2023-05-14T12:38:46.653Z,10.92
2023-05-14T12:41:13.381Z,11.04
2023-05-14T12:43:39.771Z,10.97
2023-05-14T12:46:06.164Z,10.97
2023-05-14T12:48:32.495Z,10.94
2023-05-14T12:50:58.937Z,10.99
2023-05-14T12:53:25.321Z,11.01
2023-05-14T12:55:51.802Z,10.97
2023-05-14T12:58:18.264Z,10.97
2023-05-14T13:00:44.865Z,11.07
2023-05-14T13:03:11.469Z,11.03
2023-05-14T13:05:37.948Z,11.02
2023-05-14T13:08:04.326Z,11.03
2023-05-14T13:10:30.818Z,10.97
2023-05-14T13:12:57.294Z,10.98
2023-05-14T13:15:23.873Z,10.92
2023-05-14T13:17:50.469Z,10.93
2023-05-14T13:20:17.293Z,10.99
2023-05-14T13:22:44.128Z,10.94
2023-05-14T13:25:10.505Z,10.98
2023-05-14T13:27:36.993Z,10.91
2023-05-14T13:30:03.408Z,10.94
2023-05-14T13:32:29.976Z,10.93
2023-05-14T13:34:56.402Z,10.97
2023-05-14T13:37:23.248Z,10.99
2023-05-14T13:39:51.524Z,11.10
2023-05-14T13:42:18.502Z,11.07
2023-05-14T13:44:44.977Z,11.15
2023-05-14T13:47:11.393Z,11.20
2023-05-14T13:49:37.745Z,11.15
2023-05-14T13:52:04.242Z,11.12
2023-05-14T13:54:30.747Z,11.18
2023-05-14T13:56:57.251Z,11.20
2023-05-14T13:59:24.539Z,11.19
2023-05-14T14:01:51.002Z,11.24
2023-05-14T14:04:17.870Z,11.23
2023-05-14T14:06:44.244Z,11.08
2023-05-14T14:09:10.812Z,11.09
2023-05-14T14:11:37.244Z,11.09
2023-05-14T14:14:03.655Z,11.06
2023-05-14T14:16:30.271Z,11.01
2023-05-14T14:18:57.061Z,10.85
2023-05-14T14:21:23.469Z,10.95
2023-05-14T14:23:49.890Z,11.01
2023-05-14T14:26:17.418Z,11.01
2023-05-14T14:28:43.844Z,11.01
2023-05-14T14:31:10.565Z,10.93
2023-05-14T14:33:37.051Z,10.98
2023-05-14T14:36:03.529Z,10.95
2023-05-14T14:38:30.161Z,10.89
2023-05-14T14:40:57.042Z,10.86
2023-05-14T14:43:23.773Z,10.80
2023-05-14T14:45:50.738Z,10.86
2023-05-14T14:48:17.535Z,10.87
2023-05-14T14:50:44.282Z,10.88
2023-05-14T14:53:10.954Z,10.67
2023-05-14T14:55:37.656Z,10.70
2023-05-14T14:58:04.371Z,10.77
2023-05-14T15:00:31.114Z,10.78
2023-05-14T15:02:58.464Z,10.75
2023-05-14T15:05:25.612Z,10.79
2023-05-14T15:07:52.720Z,10.79
2023-05-14T15:10:19.365Z,10.81
2023-05-14T15:12:46.307Z,10.82
2023-05-14T15:15:13.197Z,10.81
2023-05-14T15:17:40.348Z,10.83
2023-05-14T15:20:07.549Z,10.73
2023-05-14T15:22:34.496Z,10.73
2023-05-14T15:25:01.572Z,10.69
2023-05-14T15:27:28.604Z,10.65
2023-05-14T15:29:55.696Z,10.66
2023-05-14T15:32:22.807Z,10.68
2023-05-14T15:34:49.626Z,10.59
2023-05-14T15:37:16.850Z,10.66
2023-05-14T15:39:43.676Z,10.64
2023-05-14T15:42:10.711Z,10.65
2023-05-14T15:44:38.873Z,10.73
2023-05-14T15:47:06.168Z,10.75
2023-05-14T15:49:33.294Z,10.69
2023-05-14T15:52:00.165Z,10.58
2023-05-14T15:54:27.853Z,10.73
2023-05-14T15:56:54.749Z,10.67
2023-05-14T15:59:21.766Z,10.67
2023-05-14T16:01:48.897Z,10.61
2023-05-14T16:04:17.023Z,10.55
2023-05-14T16:06:46.366Z,10.58
2023-05-14T16:09:13.474Z,10.56
2023-05-14T16:11:43.003Z,10.67
2023-05-14T16:14:10.210Z,10.66
2023-05-14T16:16:37.519Z,10.73
2023-05-14T16:19:04.844Z,10.70
2023-05-14T16:21:33.784Z,10.66
2023-05-14T16:24:00.796Z,10.54
2023-05-14T16:26:27.839Z,10.54
2023-05-14T16:28:55.490Z,10.54
2023-05-14T16:31:22.806Z,10.59
2023-05-14T16:33:52.224Z,10.63
2023-05-14T16:36:19.836Z,10.69
2023-05-14T16:39:05.379Z,10.72
2023-05-14T16:41:33.881Z,10.44
2023-05-14T16:44:01.175Z,10.25
2023-05-14T16:46:28.455Z,10.32
2023-05-14T16:48:56.061Z,10.39
2023-05-14T16:51:24.279Z,10.43
2023-05-14T16:53:52.045Z,10.50
2023-05-14T16:56:19.444Z,10.43
2023-05-14T16:58:46.573Z,10.46
2023-05-14T17:01:13.722Z,10.43
2023-05-14T17:03:40.833Z,10.35
2023-05-14T17:06:08.093Z,10.49
2023-05-14T17:08:37.326Z,10.55
2023-05-14T17:11:05.157Z,10.51
2023-05-14T17:13:32.244Z,10.48
2023-05-14T17:15:59.499Z,10.46
2023-05-14T17:18:26.776Z,10.53
2023-05-14T17:20:53.964Z,10.50
2023-05-14T17:23:21.668Z,10.53
2023-05-14T17:25:48.742Z,10.56
2023-05-14T17:28:15.949Z,10.49
2023-05-14T17:30:43.519Z,10.44
2023-05-14T17:33:10.719Z,10.49
2023-05-14T17:35:38.009Z,10.45
2023-05-14T17:38:05.909Z,10.43
2023-05-14T17:40:33.591Z,10.34
2023-05-14T17:43:00.952Z,10.58
2023-05-14T17:45:32.168Z,10.90
2023-05-14T17:48:04.061Z,11.11
2023-05-14T17:50:31.309Z,10.93
2023-05-14T17:52:59.149Z,10.89
2023-05-14T17:55:28.616Z,10.42
2023-05-14T17:57:55.815Z,10.30
2023-05-14T18:00:23.640Z,10.46
2023-05-14T18:02:51.766Z,10.56
2023-05-14T18:05:20.672Z,10.58
2023-05-14T18:07:48.062Z,10.54
2023-05-14T18:10:19.911Z,10.53
2023-05-14T18:12:50.150Z,10.44
2023-05-14T18:15:17.865Z,10.76
2023-05-14T18:17:45.806Z,10.87
2023-05-14T18:20:13.273Z,10.93
2023-05-14T18:22:42.001Z,10.90
2023-05-14T18:25:09.446Z,10.79
2023-05-14T18:27:43.886Z,10.82
2023-05-14T18:30:11.851Z,10.69
2023-05-14T18:32:42.993Z,10.66
2023-05-14T18:35:10.193Z,10.65
2023-05-14T18:37:37.533Z,10.63
2023-05-14T18:40:05.132Z,10.58
2023-05-14T18:42:32.387Z,10.59
2023-05-14T18:44:59.616Z,10.66
2023-05-14T18:47:26.823Z,10.46
2023-05-14T18:49:53.978Z,10.45
2023-05-14T18:52:21.152Z,10.50
2023-05-14T18:54:48.656Z,10.50
2023-05-14T18:57:16.891Z,10.52
2023-05-14T18:59:44.201Z,10.48
2023-05-14T19:02:12.585Z,10.47
2023-05-14T19:04:51.225Z,10.47
2023-05-14T19:07:20.911Z,10.54
2023-05-14T19:09:48.829Z,10.54
2023-05-14T19:12:16.196Z,10.64
2023-05-14T19:14:43.404Z,10.53
2023-05-14T19:17:10.671Z,10.20
2023-05-14T19:19:37.869Z,10.24
2023-05-14T19:22:05.177Z,10.45
2023-05-14T19:24:32.413Z,10.45
2023-05-14T19:27:01.147Z,10.49
2023-05-14T19:29:28.518Z,10.47
2023-05-14T19:31:55.737Z,10.42
2023-05-14T19:34:23.448Z,10.53
2023-05-14T19:36:50.615Z,10.46
2023-05-14T19:39:19.787Z,10.47
2023-05-14T19:41:48.086Z,10.48
2023-05-14T19:44:15.264Z,10.52
2023-05-14T19:46:42.422Z,10.55
2023-05-14T19:49:09.598Z,10.63
2023-05-14T19:51:37.101Z,10.50
2023-05-14T19:54:06.907Z,10.52
2023-05-14T19:56:34.324Z,10.52
2023-05-14T19:59:01.466Z,10.57
2023-05-14T20:01:28.947Z,10.53
2023-05-14T20:03:56.191Z,10.53
2023-05-14T20:06:23.740Z,10.58
2023-05-14T20:08:51.323Z,10.53
2023-05-14T20:11:18.474Z,10.46
2023-05-14T20:13:45.621Z,10.51
2023-05-14T20:16:12.816Z,10.59
2023-05-14T20:18:39.923Z,10.61
2023-05-14T20:21:07.112Z,10.60
2023-05-14T20:23:34.275Z,10.60
2023-05-14T20:26:01.455Z,10.66
2023-05-14T20:28:28.579Z,10.64
2023-05-14T20:30:55.835Z,10.73
2023-05-14T20:33:23.105Z,10.56
2023-05-14T20:35:50.281Z,10.51
2023-05-14T20:38:17.372Z,10.54
2023-05-14T20:40:44.556Z,10.60
2023-05-14T20:43:11.560Z,10.55
2023-05-14T20:45:38.552Z,10.54
2023-05-14T20:48:06.587Z,10.55
2023-05-14T20:50:33.648Z,10.57
2023-05-14T20:53:00.425Z,10.52
2023-05-14T20:55:27.362Z,10.53
2023-05-14T20:57:54.319Z,10.48
2023-05-14T21:00:20.756Z,10.55
2023-05-14T21:02:47.202Z,10.55
2023-05-14T21:05:13.736Z,10.53
2023-05-14T21:07:40.142Z,10.56
2023-05-14T21:10:07.520Z,10.53
2023-05-14T21:12:34.076Z,10.56
2023-05-14T21:15:00.473Z,10.53
2023-05-14T21:17:27.015Z,10.52
2023-05-14T21:19:53.423Z,10.55
2023-05-14T21:22:19.909Z,10.56
2023-05-14T21:24:46.364Z,10.55
2023-05-14T21:27:12.787Z,10.52
2023-05-14T21:29:39.353Z,10.54
2023-05-14T21:32:05.916Z,10.54
2023-05-14T21:34:32.575Z,10.56
2023-05-14T21:36:58.885Z,10.57
2023-05-14T21:39:25.249Z,10.58
2023-05-14T21:41:51.716Z,10.61
2023-05-14T21:44:18.060Z,10.57
2023-05-14T21:46:44.490Z,10.36
2023-05-14T21:49:10.873Z,10.38
2023-05-14T21:51:37.345Z,10.41
2023-05-14T21:54:03.774Z,10.48
2023-05-14T21:56:30.166Z,10.50
2023-05-14T21:58:56.617Z,10.54
2023-05-14T22:01:23.180Z,10.54
2023-05-14T22:03:49.788Z,10.55
2023-05-14T22:06:16.159Z,10.51
2023-05-14T22:08:42.577Z,10.51
2023-05-14T22:11:09.188Z,10.53
2023-05-14T22:13:35.615Z,10.55
2023-05-14T22:16:12.093Z,10.57
2023-05-14T22:18:39.660Z,10.55
2023-05-14T22:21:06.047Z,10.53
2023-05-14T22:23:32.505Z,10.50
2023-05-14T22:25:58.953Z,10.55
2023-05-14T22:28:25.361Z,10.57
2023-05-14T22:30:51.718Z,10.56
2023-05-14T22:33:18.176Z,10.62
2023-05-14T22:35:44.623Z,10.62
2023-05-14T22:38:10.928Z,10.60
2023-05-14T22:40:37.323Z,10.64
2023-05-14T22:43:03.705Z,10.63
2023-05-14T22:45:30.350Z,10.63
2023-05-14T22:47:56.728Z,10.58
2023-05-14T22:50:23.388Z,10.59
2023-05-14T22:52:49.766Z,10.65
2023-05-14T22:55:16.184Z,10.59
2023-05-14T22:57:42.692Z,10.53
2023-05-14T23:00:09.116Z,10.50
2023-05-14T23:02:35.550Z,10.51
2023-05-14T23:05:02.050Z,10.56
2023-05-14T23:07:28.516Z,10.32
2023-05-14T23:09:55.347Z,10.49
2023-05-14T23:12:21.806Z,10.28
2023-05-14T23:14:48.194Z,10.37
2023-05-14T23:17:14.840Z,10.48
2023-05-14T23:19:41.273Z,10.55
2023-05-14T23:22:07.772Z,10.55
2023-05-14T23:24:34.231Z,10.55
2023-05-14T23:27:00.700Z,10.59
2023-05-14T23:29:27.162Z,10.52
2023-05-14T23:31:53.687Z,10.53
2023-05-14T23:34:20.106Z,10.61
2023-05-14T23:36:46.466Z,10.61
2023-05-14T23:39:12.868Z,10.43
2023-05-14T23:41:39.339Z,10.43
2023-05-14T23:44:05.676Z,10.55
2023-05-14T23:46:32.146Z,10.59
2023-05-14T23:48:58.722Z,10.61
2023-05-14T23:51:25.285Z,10.62
2023-05-14T23:53:51.772Z,10.60
2023-05-14T23:56:18.209Z,10.62
2023-05-14T23:58:44.834Z,10.61
